Andover, Iowa
Current Conditions -  °F | °C
As of 2:55 PM on Thursday 23 Oct 2014 (Local Time) from KSFY Reporting Station
Overcast Overcast  
Wind Chill: 16°   Ceiling: 2800
Heat Index: 16°   Visibility: 10mi
Dew Point:   Wind: 10mph
Humidity: 55%   Direction: 200°SSW
Pressure: 30.04"   Gusts: 18mph
Location:  41.98°N, 90.25°W
Report Text: KSFY 231955Z AUTO 20009G16KT 10SM OVC028 16/07 A3004 RMK AO2 T01560067
Loading
Personal Weather Stations






























Interactive Weather Map
Tropical Storm Tracking
New forecast layout! Learn more

10-Day Weather Forecast

Advertisements
Track Severe Weather on mobile